Time,TemperatureF,DewpointF,PressureIn,WindDirection,WindDirectionDegrees,WindSpeedMPH,WindSpeedGustMPH,Humidity,HourlyPrecipIn,Conditions,Clouds,dailyrainin,SoftwareType,DateUTC
2013-08-09 00:09:00,74.9,74.0,29.96,ENE,58,0.0,3.0,97,0.00,,,0.00,weatherlink.com 1.10,2013-08-09 05:09:00,
2013-08-09 00:24:00,75.0,74.0,29.95,ENE,65,0.0,2.0,97,0.00,,,0.00,weatherlink.com 1.10,2013-08-09 05:24:00,
2013-08-09 00:39:00,75.0,74.0,29.95,ENE,67,0.0,1.0,97,0.00,,,0.00,weatherlink.com 1.10,2013-08-09 05:39:00,
2013-08-09 00:54:00,75.0,74.0,29.95,East,98,0.0,2.0,97,0.00,,,0.00,weatherlink.com 1.10,2013-08-09 05:54:00,
2013-08-09 01:09:00,75.0,74.0,29.95,ESE,113,0.0,1.0,97,0.00,,,0.00,weatherlink.com 1.10,2013-08-09 06:09:00,
2013-08-09 01:24:00,75.0,74.0,29.95,ESE,113,0.0,3.0,97,0.00,,,0.00,weatherlink.com 1.10,2013-08-09 06:24:00,
2013-08-09 01:39:00,74.9,74.0,29.94,SSE,163,0.0,1.0,97,0.00,,,0.00,weatherlink.com 1.10,2013-08-09 06:39:00,
2013-08-09 01:54:00,74.9,74.0,29.95,SSE,152,0.0,1.0,97,0.00,,,0.00,weatherlink.com 1.10,2013-08-09 06:54:00,
2013-08-09 02:09:00,75.0,74.0,29.95,SE,125,0.0,3.0,97,0.00,,,0.00,weatherlink.com 1.10,2013-08-09 07:09:00,
2013-08-09 02:24:00,74.9,74.0,29.95,SE,141,0.0,5.0,97,0.00,,,0.00,weatherlink.com 1.10,2013-08-09 07:24:00,
2013-08-09 02:39:00,75.0,74.0,29.94,East,97,0.0,3.0,97,0.00,,,0.00,weatherlink.com 1.10,2013-08-09 07:39:00,
2013-08-09 02:54:00,75.0,74.0,29.95,ESE,120,0.0,2.0,97,0.00,,,0.00,weatherlink.com 1.10,2013-08-09 07:54:00,
2013-08-09 03:09:00,75.1,74.0,29.95,ENE,75,0.0,3.0,97,0.00,,,0.00,weatherlink.com 1.10,2013-08-09 08:09:00,
2013-08-09 03:24:00,74.9,74.0,29.95,SSE,155,0.0,2.0,97,0.00,,,0.00,weatherlink.com 1.10,2013-08-09 08:24:00,
2013-08-09 03:39:00,75.0,74.0,29.95,ENE,64,0.0,0.0,97,0.00,,,0.00,weatherlink.com 1.10,2013-08-09 08:39:00,
2013-08-09 03:54:00,74.9,74.0,29.95,NE,49,0.0,1.0,97,0.00,,,0.00,weatherlink.com 1.10,2013-08-09 08:54:00,
2013-08-09 04:09:00,74.9,74.0,29.96,ENE,58,0.0,1.0,97,0.00,,,0.00,weatherlink.com 1.10,2013-08-09 09:09:00,
2013-08-09 04:24:00,74.7,74.0,29.96,ESE,104,0.0,0.0,97,0.00,,,0.00,weatherlink.com 1.10,2013-08-09 09:24:00,
2013-08-09 04:39:00,74.4,74.0,29.96,NE,50,0.0,0.0,97,0.00,,,0.00,weatherlink.com 1.10,2013-08-09 09:39:00,
2013-08-09 04:54:00,74.2,73.0,29.96,NE,50,0.0,0.0,97,0.00,,,0.00,weatherlink.com 1.10,2013-08-09 09:54:00,
2013-08-09 05:09:00,73.9,73.0,29.96,NE,50,0.0,0.0,97,0.00,,,0.00,weatherlink.com 1.10,2013-08-09 10:09:00,
2013-08-09 05:24:00,73.9,73.0,29.96,NE,50,0.0,0.0,97,0.00,,,0.00,weatherlink.com 1.10,2013-08-09 10:24:00,
2013-08-09 05:39:00,73.7,73.0,29.96,NE,49,0.0,0.0,97,0.00,,,0.00,weatherlink.com 1.10,2013-08-09 10:39:00,
2013-08-09 05:54:00,73.7,73.0,29.97,NE,50,0.0,0.0,97,0.00,,,0.00,weatherlink.com 1.10,2013-08-09 10:54:00,
2013-08-09 06:09:00,74.2,74.0,29.97,NE,37,0.0,0.0,98,0.00,,,0.00,weatherlink.com 1.10,2013-08-09 11:09:00,
2013-08-09 06:24:00,74.7,74.0,29.98,ENE,62,0.0,1.0,98,0.01,,,0.01,weatherlink.com 1.10,2013-08-09 11:24:00,
2013-08-09 06:39:00,74.8,74.0,29.99,ENE,65,0.0,1.0,98,0.01,,,0.01,weatherlink.com 1.10,2013-08-09 11:39:00,
2013-08-09 06:54:00,75.1,75.0,29.99,NE,53,0.0,0.0,98,0.01,,,0.01,weatherlink.com 1.10,2013-08-09 11:54:00,
2013-08-09 07:09:00,75.3,75.0,29.99,East,92,2.0,4.0,98,0.01,,,0.01,weatherlink.com 1.10,2013-08-09 12:09:00,
2013-08-09 07:24:00,75.6,75.0,30.00,East,91,0.0,3.0,98,0.00,,,0.01,weatherlink.com 1.10,2013-08-09 12:24:00,
2013-08-09 07:39:00,75.9,75.0,30.01,South,177,0.0,5.0,97,0.00,,,0.01,weatherlink.com 1.10,2013-08-09 12:39:00,
2013-08-09 07:54:00,76.2,75.0,30.01,SE,134,1.0,3.0,97,0.00,,,0.01,weatherlink.com 1.10,2013-08-09 12:54:00,
2013-08-09 08:09:00,76.9,76.0,30.02,East,82,1.0,3.0,97,0.00,,,0.01,weatherlink.com 1.10,2013-08-09 13:09:00,
2013-08-09 08:24:00,77.6,77.0,30.02,ENE,70,1.0,2.0,97,0.00,,,0.01,weatherlink.com 1.10,2013-08-09 13:24:00,
2013-08-09 08:39:00,78.4,78.0,30.02,NE,34,2.0,3.0,97,0.00,,,0.01,weatherlink.com 1.10,2013-08-09 13:39:00,
2013-08-09 08:54:00,79.2,78.0,30.02,ESE,110,0.0,3.0,96,0.00,,,0.01,weatherlink.com 1.10,2013-08-09 13:54:00,
2013-08-09 09:09:00,80.1,78.0,30.02,East,83,0.0,5.0,94,0.00,,,0.01,weatherlink.com 1.10,2013-08-09 14:09:00,
2013-08-09 09:25:00,81.0,79.0,30.02,East,95,0.0,4.0,93,0.00,,,0.01,weatherlink.com 1.10,2013-08-09 14:25:00,
2013-08-09 09:40:00,82.1,79.0,30.03,SE,146,0.0,4.0,90,0.00,,,0.01,weatherlink.com 1.10,2013-08-09 14:40:00,
2013-08-09 09:55:00,83.0,80.0,30.03,ENE,68,2.0,3.0,89,0.00,,,0.01,weatherlink.com 1.10,2013-08-09 14:55:00,
2013-08-09 10:10:00,83.8,80.0,30.02,WSW,245,1.0,4.0,87,0.00,,,0.01,weatherlink.com 1.10,2013-08-09 15:10:00,
2013-08-09 10:25:00,84.4,80.0,30.03,NE,51,0.0,4.0,85,0.00,,,0.01,weatherlink.com 1.10,2013-08-09 15:25:00,
2013-08-09 10:40:00,84.7,79.0,30.03,SE,131,2.0,7.0,84,0.00,,,0.01,weatherlink.com 1.10,2013-08-09 15:40:00,
2013-08-09 10:55:00,87.0,81.0,30.03,ESE,118,0.0,5.0,81,0.00,,,0.01,weatherlink.com 1.10,2013-08-09 15:55:00,
2013-08-09 11:10:00,87.9,80.0,30.02,SE,138,4.0,6.0,77,0.00,,,0.01,weatherlink.com 1.10,2013-08-09 16:10:00,
2013-08-09 11:25:00,87.7,79.0,30.03,SW,226,0.0,5.0,76,0.00,,,0.01,weatherlink.com 1.10,2013-08-09 16:25:00,
2013-08-09 11:40:00,88.4,80.0,30.02,SSE,165,1.0,7.0,76,0.00,,,0.01,weatherlink.com 1.10,2013-08-09 16:40:00,
2013-08-09 11:55:00,88.8,79.0,30.02,SE,129,2.0,7.0,73,0.00,,,0.01,weatherlink.com 1.10,2013-08-09 16:55:00,
2013-08-09 12:10:00,89.3,79.0,30.02,West,281,2.0,7.0,71,0.00,,,0.01,weatherlink.com 1.10,2013-08-09 17:10:00,
2013-08-09 12:25:00,90.8,80.0,30.01,WSW,250,3.0,6.0,71,0.00,,,0.01,weatherlink.com 1.10,2013-08-09 17:25:00,
2013-08-09 12:40:00,89.1,81.0,30.01,ESE,119,0.0,7.0,77,0.00,,,0.01,weatherlink.com 1.10,2013-08-09 17:40:00,
2013-08-09 12:55:00,90.6,78.0,30.00,East,83,3.0,7.0,67,0.00,,,0.01,weatherlink.com 1.10,2013-08-09 17:55:00,
2013-08-09 13:10:00,90.5,80.0,29.99,NNE,19,2.0,6.0,70,0.00,,,0.01,weatherlink.com 1.10,2013-08-09 18:10:00,
2013-08-09 13:25:00,91.7,78.0,29.99,WNW,294,1.0,5.0,65,0.00,,,0.01,weatherlink.com 1.10,2013-08-09 18:25:00,
2013-08-09 13:40:00,92.4,79.0,29.98,ESE,103,3.0,5.0,64,0.00,,,0.01,weatherlink.com 1.10,2013-08-09 18:40:00,
2013-08-09 13:55:00,92.7,78.0,29.97,SSE,162,1.0,6.0,62,0.00,,,0.01,weatherlink.com 1.10,2013-08-09 18:55:00,
2013-08-09 14:10:00,92.9,78.0,29.97,SE,138,3.0,4.0,62,0.00,,,0.01,weatherlink.com 1.10,2013-08-09 19:10:00,
2013-08-09 14:25:00,93.0,80.0,29.97,East,93,2.0,5.0,65,0.00,,,0.01,weatherlink.com 1.10,2013-08-09 19:25:00,
2013-08-09 14:40:00,91.6,79.0,29.96,ESE,102,5.0,7.0,66,0.00,,,0.01,weatherlink.com 1.10,2013-08-09 19:40:00,
2013-08-09 14:55:00,89.3,78.0,29.96,SE,131,1.0,5.0,70,0.00,,,0.01,weatherlink.com 1.10,2013-08-09 19:55:00,
2013-08-09 15:10:00,91.4,78.0,29.95,SSE,150,5.0,7.0,65,0.00,,,0.01,weatherlink.com 1.10,2013-08-09 20:10:00,
2013-08-09 15:25:00,92.7,78.0,29.95,ENE,68,2.0,5.0,63,0.00,,,0.01,weatherlink.com 1.10,2013-08-09 20:25:00,
2013-08-09 15:40:00,92.7,79.0,29.94,SSW,200,1.0,7.0,64,0.00,,,0.01,weatherlink.com 1.10,2013-08-09 20:40:00,
2013-08-09 15:55:00,92.7,77.0,29.94,SE,139,2.0,4.0,61,0.00,,,0.01,weatherlink.com 1.10,2013-08-09 20:55:00,
2013-08-09 16:10:00,93.2,79.0,29.94,SE,146,0.0,4.0,64,0.00,,,0.01,weatherlink.com 1.10,2013-08-09 21:10:00,
2013-08-09 16:25:00,92.9,79.0,29.94,SSW,204,3.0,4.0,64,0.00,,,0.01,weatherlink.com 1.10,2013-08-09 21:25:00,
2013-08-09 16:40:00,84.3,76.0,29.97,East,101,2.0,16.0,76,0.00,,,0.01,weatherlink.com 1.10,2013-08-09 21:40:00,
2013-08-09 16:55:00,78.5,76.0,29.99,NE,47,2.0,14.0,91,0.26,,,0.27,weatherlink.com 1.10,2013-08-09 21:55:00,
2013-08-09 17:10:00,76.0,74.0,29.98,ENE,70,1.0,6.0,93,0.62,,,0.63,weatherlink.com 1.10,2013-08-09 22:10:00,
2013-08-09 17:26:00,75.1,74.0,29.97,South,189,0.0,3.0,95,0.73,,,0.74,weatherlink.com 1.10,2013-08-09 22:26:00,
2013-08-09 17:41:00,75.5,74.0,29.97,SSW,208,0.0,1.0,96,0.73,,,0.74,weatherlink.com 1.10,2013-08-09 22:41:00,
2013-08-09 17:56:00,75.7,75.0,29.97,SSW,207,0.0,0.0,96,0.43,,,0.74,weatherlink.com 1.10,2013-08-09 22:56:00,
2013-08-09 18:11:00,76.3,75.0,29.97,ENE,67,0.0,1.0,97,0.10,,,0.74,weatherlink.com 1.10,2013-08-09 23:11:00,
2013-08-09 18:26:00,77.0,76.0,29.98,ENE,67,0.0,0.0,97,0.00,,,0.74,weatherlink.com 1.10,2013-08-09 23:26:00,
2013-08-09 18:41:00,76.9,76.0,29.99,NNW,343,0.0,0.0,96,0.00,,,0.74,weatherlink.com 1.10,2013-08-09 23:41:00,
2013-08-09 18:56:00,76.7,76.0,29.99,NNE,16,0.0,0.0,96,0.00,,,0.74,weatherlink.com 1.10,2013-08-09 23:56:00,
2013-08-09 19:11:00,76.3,75.0,29.99,NNE,15,0.0,0.0,96,0.00,,,0.74,weatherlink.com 1.10,2013-08-10 00:11:00,
2013-08-09 19:26:00,76.2,75.0,30.00,NNE,27,0.0,0.0,97,0.00,,,0.74,weatherlink.com 1.10,2013-08-10 00:26:00,
2013-08-09 19:41:00,76.0,75.0,30.00,ESE,123,0.0,0.0,97,0.00,,,0.74,weatherlink.com 1.10,2013-08-10 00:41:00,
2013-08-09 19:56:00,75.7,75.0,30.00,ESE,115,0.0,0.0,97,0.00,,,0.74,weatherlink.com 1.10,2013-08-10 00:56:00,
2013-08-09 20:11:00,75.8,75.0,30.02,SE,138,0.0,2.0,97,0.00,,,0.74,weatherlink.com 1.10,2013-08-10 01:11:00,
2013-08-09 20:26:00,75.7,75.0,30.03,South,184,0.0,1.0,97,0.00,,,0.74,weatherlink.com 1.10,2013-08-10 01:26:00,
2013-08-09 20:41:00,75.4,75.0,30.03,South,184,0.0,0.0,97,0.00,,,0.74,weatherlink.com 1.10,2013-08-10 01:41:00,
2013-08-09 20:56:00,75.0,74.0,30.03,South,184,0.0,0.0,97,0.00,,,0.74,weatherlink.com 1.10,2013-08-10 01:56:00,
2013-08-09 21:11:00,74.7,74.0,30.03,SSW,208,1.0,1.0,97,0.00,,,0.74,weatherlink.com 1.10,2013-08-10 02:11:00,
2013-08-09 21:26:00,74.6,74.0,30.04,SSW,204,0.0,0.0,97,0.00,,,0.74,weatherlink.com 1.10,2013-08-10 02:26:00,
2013-08-09 21:41:00,74.4,74.0,30.04,SSW,204,0.0,0.0,97,0.00,,,0.74,weatherlink.com 1.10,2013-08-10 02:41:00,
2013-08-09 21:56:00,74.3,73.0,30.04,SSW,204,0.0,0.0,97,0.00,,,0.74,weatherlink.com 1.10,2013-08-10 02:56:00,
2013-08-09 22:11:00,74.1,73.0,30.04,SSW,204,0.0,0.0,97,0.00,,,0.74,weatherlink.com 1.10,2013-08-10 03:11:00,
2013-08-09 22:26:00,74.2,73.0,30.04,East,100,0.0,1.0,97,0.00,,,0.74,weatherlink.com 1.10,2013-08-10 03:26:00,
2013-08-09 22:41:00,74.0,73.0,30.04,East,100,0.0,0.0,97,0.00,,,0.74,weatherlink.com 1.10,2013-08-10 03:41:00,
2013-08-09 22:56:00,74.1,73.0,30.05,East,100,0.0,1.0,97,0.00,,,0.74,weatherlink.com 1.10,2013-08-10 03:56:00,
2013-08-09 23:11:00,73.8,73.0,30.04,East,101,0.0,0.0,97,0.00,,,0.74,weatherlink.com 1.10,2013-08-10 04:11:00,
2013-08-09 23:26:00,73.5,73.0,30.04,East,101,0.0,0.0,97,0.00,,,0.74,weatherlink.com 1.10,2013-08-10 04:26:00,
2013-08-09 23:41:00,73.5,72.0,30.04,East,100,0.0,0.0,96,0.01,,,0.75,weatherlink.com 1.10,2013-08-10 04:41:00,
2013-08-09 23:56:00,73.4,72.0,30.04,East,100,0.0,0.0,96,0.01,,,0.75,weatherlink.com 1.10,2013-08-10 04:56:00,